createdAt,value
2022-08-02T00:00:55.370Z,52.22
2022-08-02T00:03:23.427Z,52.11
2022-08-02T00:05:53.013Z,52.49
2022-08-02T00:08:20.702Z,53.04
2022-08-02T00:10:47.765Z,52.81
2022-08-02T00:13:14.607Z,52.73
2022-08-02T00:15:41.660Z,52.50
2022-08-02T00:18:08.580Z,52.59
2022-08-02T00:20:35.450Z,52.95
2022-08-02T00:23:02.250Z,53.11
2022-08-02T00:25:29.234Z,53.47
2022-08-02T00:27:56.064Z,53.40
2022-08-02T00:30:22.878Z,53.61
2022-08-02T00:32:49.925Z,53.20
2022-08-02T00:35:16.901Z,53.58
2022-08-02T00:37:43.878Z,53.82
2022-08-02T00:40:10.991Z,53.72
2022-08-02T00:42:38.439Z,53.53
2022-08-02T00:45:05.522Z,53.80
2022-08-02T00:47:32.349Z,53.85
2022-08-02T00:49:59.169Z,53.68
2022-08-02T00:52:26.193Z,53.97
2022-08-02T00:54:53.042Z,54.04
2022-08-02T00:57:19.903Z,53.80
2022-08-02T00:59:46.793Z,54.25
2022-08-02T01:02:14.249Z,53.84
2022-08-02T01:04:41.565Z,54.01
2022-08-02T01:07:13.928Z,53.44
2022-08-02T01:09:44.627Z,53.91
2022-08-02T01:12:12.479Z,54.21
2022-08-02T01:14:42.435Z,54.83
2022-08-02T01:17:18.969Z,54.35
2022-08-02T01:20:03.772Z,54.12
2022-08-02T01:23:06.070Z,53.94
2022-08-02T01:25:45.296Z,54.70
2022-08-02T01:28:44.553Z,54.87
2022-08-02T01:31:16.596Z,55.58
2022-08-02T01:33:46.258Z,54.78
2022-08-02T01:36:14.729Z,55.21
2022-08-02T01:38:47.353Z,55.36
2022-08-02T01:41:17.016Z,55.26
2022-08-02T01:43:45.176Z,55.36
2022-08-02T01:46:13.756Z,55.31
2022-08-02T01:48:41.243Z,55.34
2022-08-02T01:51:08.947Z,55.74
2022-08-02T01:53:36.215Z,55.66
2022-08-02T01:56:03.734Z,55.62
2022-08-02T01:58:31.964Z,55.69
2022-08-02T02:00:59.990Z,56.31
2022-08-02T02:03:27.681Z,55.81
2022-08-02T02:05:57.366Z,56.02
2022-08-02T02:08:27.759Z,56.10
2022-08-02T02:10:56.557Z,55.93
2022-08-02T02:13:28.734Z,56.37
2022-08-02T02:16:02.805Z,56.36
2022-08-02T02:18:31.442Z,56.15
2022-08-02T02:20:58.373Z,55.95
2022-08-02T02:23:25.906Z,56.59
2022-08-02T02:25:55.663Z,56.71
2022-08-02T02:28:30.636Z,56.68
2022-08-02T02:31:24.043Z,56.92
2022-08-02T02:33:53.235Z,56.68
2022-08-02T02:36:21.777Z,56.95
2022-08-02T02:38:48.967Z,56.72
2022-08-02T02:41:16.982Z,56.61
2022-08-02T02:43:44.453Z,56.77
2022-08-02T02:46:12.527Z,57.53
2022-08-02T02:48:40.403Z,57.95
2022-08-02T02:51:14.180Z,57.90
2022-08-02T02:54:30.977Z,58.03
2022-08-02T02:56:28.931Z,58.13
2022-08-02T02:58:56.219Z,58.00
2022-08-02T03:01:55.581Z,58.29
2022-08-02T03:04:17.385Z,58.87
2022-08-02T03:06:44.285Z,59.86
2022-08-02T03:09:11.647Z,59.19
2022-08-02T03:11:38.803Z,59.47
2022-08-02T03:14:08.875Z,59.74
2022-08-02T03:16:41.991Z,60.14
2022-08-02T03:19:08.770Z,60.14
2022-08-02T03:21:35.470Z,60.38
2022-08-02T03:24:02.172Z,60.15
2022-08-02T03:26:29.014Z,60.81
2022-08-02T03:28:55.804Z,60.81
2022-08-02T03:31:22.497Z,61.67
2022-08-02T03:33:49.634Z,61.28
2022-08-02T03:36:19.570Z,62.09
2022-08-02T03:38:46.550Z,62.17
2022-08-02T03:41:14.062Z,62.38
2022-08-02T03:43:41.350Z,62.03
2022-08-02T03:46:08.933Z,61.49
2022-08-02T03:48:36.968Z,61.47
2022-08-02T03:51:03.901Z,61.99
2022-08-02T03:53:31.343Z,62.04
2022-08-02T03:56:15.793Z,62.00
2022-08-02T03:58:45.819Z,61.23
2022-08-02T04:01:15.998Z,61.06
2022-08-02T04:03:42.835Z,61.17
2022-08-02T04:06:09.613Z,61.20
2022-08-02T04:08:38.479Z,61.45
2022-08-02T04:11:24.563Z,61.65
2022-08-02T04:13:51.545Z,62.44
2022-08-02T04:16:22.880Z,62.79
2022-08-02T04:19:01.518Z,62.40
2022-08-02T04:21:48.739Z,63.88
2022-08-02T04:24:19.178Z,63.72
2022-08-02T04:26:48.997Z,64.79
2022-08-02T04:29:17.561Z,64.64
2022-08-02T04:31:44.495Z,64.85
2022-08-02T04:34:14.973Z,65.46
2022-08-02T04:36:42.802Z,65.49
2022-08-02T04:39:09.671Z,65.57
2022-08-02T04:41:43.960Z,67.25
2022-08-02T04:44:11.674Z,67.15
2022-08-02T04:46:39.113Z,67.05
2022-08-02T04:49:06.063Z,67.30
2022-08-02T04:51:40.063Z,67.73
2022-08-02T04:54:09.529Z,67.87
2022-08-02T04:56:37.302Z,68.17
2022-08-02T04:59:04.014Z,68.10
2022-08-02T05:01:35.964Z,67.76
2022-08-02T05:04:03.131Z,68.88
2022-08-02T05:06:29.793Z,68.31
2022-08-02T05:08:56.504Z,69.37
2022-08-02T05:11:34.739Z,67.94
2022-08-02T05:14:03.850Z,68.57
2022-08-02T05:16:30.568Z,70.18
2022-08-02T05:18:58.382Z,71.13
2022-08-02T05:21:25.234Z,73.57
2022-08-02T05:23:51.858Z,72.38
2022-08-02T05:26:18.583Z,73.63
2022-08-02T05:28:45.211Z,73.67
2022-08-02T05:31:13.424Z,73.48
2022-08-02T05:33:40.720Z,73.29
2022-08-02T05:36:09.573Z,74.56
2022-08-02T05:38:37.840Z,73.15
2022-08-02T05:41:05.012Z,73.09
2022-08-02T05:43:31.692Z,72.39
2022-08-02T05:45:58.422Z,73.46
2022-08-02T05:48:31.197Z,73.86
2022-08-02T05:51:06.942Z,74.95
2022-08-02T05:53:38.132Z,75.10
2022-08-02T05:56:24.339Z,75.59
2022-08-02T05:58:56.734Z,76.40
2022-08-02T06:01:34.456Z,77.03
2022-08-02T06:04:02.248Z,78.58
2022-08-02T06:06:30.162Z,78.54
2022-08-02T06:09:01.331Z,79.39
2022-08-02T06:11:35.296Z,78.69
2022-08-02T06:14:02.935Z,77.82
2022-08-02T06:16:32.112Z,77.79
2022-08-02T06:19:00.467Z,78.56
2022-08-02T06:22:31.551Z,78.95
2022-08-02T06:24:14.202Z,79.09
2022-08-02T06:26:41.485Z,79.92
2022-08-02T06:29:08.434Z,80.28
2022-08-02T06:31:35.711Z,80.85
2022-08-02T06:34:02.465Z,78.89
2022-08-02T06:36:42.351Z,78.36
2022-08-02T06:39:27.149Z,78.28
2022-08-02T06:41:58.670Z,78.34
2022-08-02T06:44:47.054Z,80.10
2022-08-02T06:47:13.250Z,78.75
2022-08-02T06:49:52.879Z,79.29
2022-08-02T06:52:31.483Z,79.98
2022-08-02T06:54:59.204Z,79.15
2022-08-02T06:57:26.012Z,79.95
2022-08-02T06:59:52.686Z,81.57
2022-08-02T07:02:19.475Z,80.73
2022-08-02T07:04:46.206Z,81.46
2022-08-02T07:07:13.013Z,81.87
2022-08-02T07:09:39.706Z,81.67
2022-08-02T07:12:22.826Z,82.21
2022-08-02T07:14:49.458Z,82.99
2022-08-02T07:17:16.346Z,81.42
2022-08-02T07:19:43.142Z,81.83
2022-08-02T07:22:09.864Z,80.64
2022-08-02T07:24:36.523Z,79.68
2022-08-02T07:27:12.020Z,79.16
2022-08-02T07:29:46.573Z,79.35
2022-08-02T07:32:17.291Z,79.20
2022-08-02T07:34:50.438Z,79.33
2022-08-02T07:37:29.827Z,79.36
2022-08-02T07:40:11.899Z,78.85
2022-08-02T07:42:40.438Z,79.20
2022-08-02T07:45:07.246Z,79.12
2022-08-02T07:47:36.497Z,79.58
2022-08-02T07:50:03.309Z,77.10
2022-08-02T07:52:30.004Z,77.16
2022-08-02T07:54:56.613Z,77.69
2022-08-02T07:57:23.246Z,78.47
2022-08-02T07:59:51.139Z,78.27
2022-08-02T08:02:18.463Z,77.80
2022-08-02T08:04:45.129Z,78.43
2022-08-02T08:07:12.106Z,78.70
2022-08-02T08:09:41.914Z,78.67
2022-08-02T08:12:09.467Z,77.94
2022-08-02T08:14:36.694Z,78.31
2022-08-02T08:17:03.787Z,79.20
2022-08-02T08:19:49.923Z,78.63
2022-08-02T08:22:17.584Z,78.22
2022-08-02T08:24:44.342Z,78.76
2022-08-02T08:27:14.873Z,78.87
2022-08-02T08:29:42.585Z,78.30
2022-08-02T08:32:12.802Z,78.39
2022-08-02T08:34:42.858Z,78.24
2022-08-02T08:37:09.609Z,77.39
2022-08-02T08:39:58.219Z,77.62
2022-08-02T08:42:26.106Z,77.92
2022-08-02T08:44:52.843Z,77.77
2022-08-02T08:47:21.119Z,77.79
2022-08-02T08:49:52.333Z,76.73
2022-08-02T08:52:20.353Z,76.91
2022-08-02T08:54:48.594Z,77.04
2022-08-02T08:57:16.034Z,76.57
2022-08-02T08:59:42.824Z,77.35
2022-08-02T09:02:19.607Z,77.21
2022-08-02T09:04:53.561Z,77.38
2022-08-02T09:07:22.437Z,77.18
2022-08-02T09:09:49.124Z,76.98
2022-08-02T09:12:16.211Z,77.03
2022-08-02T09:14:42.913Z,76.46
2022-08-02T09:17:10.447Z,76.80
2022-08-02T09:19:37.306Z,76.47
2022-08-02T09:22:11.277Z,76.57
2022-08-02T09:24:48.470Z,76.49
2022-08-02T09:27:19.380Z,76.82
2022-08-02T09:30:12.258Z,76.98
2022-08-02T09:32:47.156Z,76.85
2022-08-02T09:35:15.442Z,76.89
2022-08-02T09:37:44.536Z,76.81
2022-08-02T09:40:13.698Z,76.82
2022-08-02T09:42:57.767Z,76.39
2022-08-02T09:45:30.074Z,76.64
2022-08-02T09:47:56.695Z,75.47
2022-08-02T09:50:23.377Z,76.25
2022-08-02T09:52:50.084Z,76.23
2022-08-02T09:55:16.858Z,75.47
2022-08-02T09:57:43.598Z,75.67
2022-08-02T10:00:26.975Z,75.73
2022-08-02T10:03:19.308Z,75.27
2022-08-02T10:05:56.065Z,75.38
2022-08-02T10:08:34.204Z,75.24
2022-08-02T10:11:05.260Z,75.00
2022-08-02T10:13:33.400Z,75.45
2022-08-02T10:16:02.764Z,75.22
2022-08-02T10:18:38.916Z,74.96
2022-08-02T10:21:07.824Z,75.45
2022-08-02T10:23:36.045Z,74.69
2022-08-02T10:26:03.610Z,75.04
2022-08-02T10:28:33.207Z,75.24
2022-08-02T10:31:01.391Z,75.32
2022-08-02T10:33:33.204Z,75.02
2022-08-02T10:36:04.663Z,75.04
2022-08-02T10:38:34.371Z,74.92
2022-08-02T10:41:01.152Z,74.61
2022-08-02T10:43:36.670Z,74.20
2022-08-02T10:46:21.752Z,74.74
2022-08-02T10:49:36.274Z,73.83
2022-08-02T10:51:54.976Z,73.66
2022-08-02T10:54:23.051Z,73.21
2022-08-02T10:56:50.912Z,73.40
2022-08-02T10:59:26.825Z,73.05
2022-08-02T11:02:01.298Z,73.13
2022-08-02T11:04:36.841Z,73.06
2022-08-02T11:07:08.834Z,72.62
2022-08-02T11:09:35.615Z,72.80
2022-08-02T11:12:06.262Z,72.82
2022-08-02T11:14:34.373Z,72.58
2022-08-02T11:17:03.581Z,72.89
2022-08-02T11:19:30.200Z,72.64
2022-08-02T11:22:02.860Z,72.99
2022-08-02T11:24:29.643Z,73.32
2022-08-02T11:26:56.656Z,73.50
2022-08-02T11:29:31.863Z,73.51
2022-08-02T11:32:05.449Z,73.50
2022-08-02T11:34:36.749Z,73.79
2022-08-02T11:37:05.288Z,74.01
2022-08-02T11:39:32.042Z,74.37
2022-08-02T11:41:59.939Z,73.65
2022-08-02T11:44:30.413Z,73.91
2022-08-02T11:47:01.403Z,73.58
2022-08-02T11:49:29.276Z,73.43
2022-08-02T11:52:06.632Z,73.33
2022-08-02T11:54:35.603Z,73.18
2022-08-02T11:57:19.399Z,73.02
2022-08-02T11:59:48.393Z,73.12
2022-08-02T12:02:16.237Z,73.36
2022-08-02T12:04:43.006Z,73.01
2022-08-02T12:07:11.123Z,72.94
2022-08-02T12:09:41.053Z,73.30
2022-08-02T12:12:08.025Z,73.69
2022-08-02T12:14:41.864Z,73.02
2022-08-02T12:17:27.008Z,73.11
2022-08-02T12:19:54.134Z,72.89
2022-08-02T12:22:27.328Z,72.46
2022-08-02T12:24:56.007Z,72.39
2022-08-02T12:27:29.890Z,72.61
2022-08-02T12:30:05.767Z,71.64
2022-08-02T12:32:32.714Z,70.90
2022-08-02T12:35:08.456Z,71.53
2022-08-02T12:37:35.970Z,71.00
2022-08-02T12:40:25.624Z,71.49
2022-08-02T12:42:54.826Z,71.00
2022-08-02T12:45:21.930Z,70.86
2022-08-02T12:47:49.573Z,70.77
2022-08-02T12:50:21.201Z,70.47
2022-08-02T12:52:51.734Z,70.51
2022-08-02T12:55:24.202Z,70.39
2022-08-02T12:57:51.974Z,70.03
2022-08-02T13:00:44.721Z,69.81
2022-08-02T13:04:09.662Z,70.10
2022-08-02T13:06:11.932Z,70.62
2022-08-02T13:08:46.085Z,69.91
2022-08-02T13:11:12.881Z,69.50
2022-08-02T13:13:39.530Z,69.59
2022-08-02T13:16:06.523Z,69.52
2022-08-02T13:18:33.355Z,69.18
2022-08-02T13:21:00.105Z,69.87
2022-08-02T13:23:54.396Z,69.49
2022-08-02T13:26:14.038Z,69.89
2022-08-02T13:28:42.963Z,69.24
2022-08-02T13:31:35.514Z,69.15
2022-08-02T13:33:57.367Z,69.15
2022-08-02T13:36:24.131Z,69.46
2022-08-02T13:38:50.857Z,68.96
2022-08-02T13:41:17.472Z,69.08
2022-08-02T13:43:54.246Z,69.52
2022-08-02T13:46:28.537Z,68.82
2022-08-02T13:48:56.383Z,68.80
2022-08-02T13:51:23.198Z,68.95
2022-08-02T13:53:49.845Z,68.63
2022-08-02T13:56:16.553Z,68.54
2022-08-02T13:58:43.374Z,68.49
2022-08-02T14:01:10.196Z,68.76
2022-08-02T14:04:07.780Z,68.23
2022-08-02T14:06:23.664Z,68.73
2022-08-02T14:08:50.306Z,68.34
2022-08-02T14:11:16.984Z,68.33
2022-08-02T14:13:43.897Z,68.16
2022-08-02T14:16:10.810Z,68.00
2022-08-02T14:18:37.865Z,68.84
2022-08-02T14:21:04.691Z,68.59
2022-08-02T14:23:49.578Z,68.52
2022-08-02T14:26:27.612Z,68.24
2022-08-02T14:28:54.698Z,68.18
2022-08-02T14:31:21.378Z,68.70
2022-08-02T14:33:48.100Z,68.48
2022-08-02T14:36:15.032Z,68.43
2022-08-02T14:38:53.985Z,68.03
2022-08-02T14:41:20.631Z,68.05
2022-08-02T14:44:05.407Z,68.15
2022-08-02T14:46:32.918Z,67.88
2022-08-02T14:49:02.401Z,68.02
2022-08-02T14:51:30.125Z,67.76
2022-08-02T14:54:02.386Z,67.72
2022-08-02T14:56:30.653Z,67.26
2022-08-02T14:58:57.741Z,66.93
2022-08-02T15:01:26.186Z,67.34
2022-08-02T15:03:53.404Z,67.72
2022-08-02T15:06:20.152Z,67.34
2022-08-02T15:08:46.797Z,66.90
2022-08-02T15:11:13.551Z,67.15
2022-08-02T15:13:42.772Z,66.61
2022-08-02T15:16:09.768Z,66.95
2022-08-02T15:18:36.475Z,66.87
2022-08-02T15:21:18.957Z,66.83
2022-08-02T15:23:50.382Z,67.37
2022-08-02T15:26:17.061Z,66.86
2022-08-02T15:28:43.712Z,67.13
2022-08-02T15:31:10.919Z,66.85
2022-08-02T15:33:50.206Z,66.90
2022-08-02T15:36:17.310Z,67.14
2022-08-02T15:38:45.905Z,66.92
2022-08-02T15:41:12.555Z,66.64
2022-08-02T15:44:00.003Z,67.02
2022-08-02T15:46:32.107Z,67.39
2022-08-02T15:49:01.842Z,67.32
2022-08-02T15:51:28.581Z,67.43
2022-08-02T15:53:55.182Z,67.17
2022-08-02T15:56:22.126Z,67.09
2022-08-02T15:58:54.010Z,66.79
2022-08-02T16:01:23.825Z,67.24
2022-08-02T16:03:50.583Z,67.24
2022-08-02T16:06:17.544Z,67.32
2022-08-02T16:08:53.552Z,67.99
2022-08-02T16:11:21.798Z,67.76
2022-08-02T16:13:53.803Z,67.74
2022-08-02T16:16:21.736Z,67.51
2022-08-02T16:18:48.427Z,67.53
2022-08-02T16:21:15.237Z,68.19
2022-08-02T16:23:58.760Z,68.63
2022-08-02T16:26:29.697Z,68.10
2022-08-02T16:28:57.294Z,68.60
2022-08-02T16:31:24.176Z,68.51
2022-08-02T16:33:55.909Z,68.10
2022-08-02T16:36:23.687Z,68.17
2022-08-02T16:38:50.472Z,68.63
2022-08-02T16:41:17.186Z,67.77
2022-08-02T16:43:43.847Z,67.69
2022-08-02T16:46:10.672Z,67.89
2022-08-02T16:48:37.451Z,67.92
2022-08-02T16:51:04.602Z,67.70
2022-08-02T16:53:37.123Z,67.62
2022-08-02T16:56:18.267Z,67.66
2022-08-02T16:58:45.717Z,67.74
2022-08-02T17:01:14.719Z,67.44
2022-08-02T17:03:56.834Z,67.49
2022-08-02T17:06:26.288Z,67.28
2022-08-02T17:08:56.441Z,66.93
2022-08-02T17:11:23.846Z,66.73
2022-08-02T17:13:51.515Z,66.98
2022-08-02T17:16:20.332Z,66.96
2022-08-02T17:18:53.289Z,66.80
2022-08-02T17:21:20.160Z,67.22
2022-08-02T17:24:05.580Z,67.00
2022-08-02T17:26:34.312Z,66.88
2022-08-02T17:29:14.303Z,66.54
2022-08-02T17:31:44.365Z,66.94
2022-08-02T17:34:13.304Z,66.47
2022-08-02T17:36:44.516Z,66.77
2022-08-02T17:39:16.360Z,67.26
2022-08-02T17:41:49.548Z,66.69
2022-08-02T17:44:37.012Z,66.70
2022-08-02T17:47:04.178Z,67.10
2022-08-02T17:49:31.119Z,67.07
2022-08-02T17:52:49.369Z,66.50
2022-08-02T17:54:44.600Z,66.97
2022-08-02T17:57:14.607Z,66.89
2022-08-02T17:59:42.418Z,66.86
2022-08-02T18:02:11.074Z,66.97
2022-08-02T18:04:38.185Z,67.00
2022-08-02T18:07:09.876Z,66.82
2022-08-02T18:09:37.245Z,66.99
2022-08-02T18:12:10.654Z,66.71
2022-08-02T18:14:37.720Z,66.67
2022-08-02T18:17:15.700Z,66.32
2022-08-02T18:19:55.283Z,66.18
2022-08-02T18:22:26.432Z,66.76
2022-08-02T18:24:53.497Z,67.24
2022-08-02T18:27:20.266Z,66.85
2022-08-02T18:29:47.426Z,66.81
2022-08-02T18:33:54.433Z,67.29
2022-08-02T18:35:14.013Z,66.48
2022-08-02T18:37:42.651Z,66.45
2022-08-02T18:40:12.458Z,66.63
2022-08-02T18:42:39.163Z,66.79
2022-08-02T18:45:06.602Z,67.08
2022-08-02T18:47:33.236Z,66.95
2022-08-02T18:50:00.884Z,66.79
2022-08-02T18:52:31.349Z,66.83
2022-08-02T18:54:58.520Z,66.96
2022-08-02T18:58:17.058Z,67.02
2022-08-02T19:00:13.275Z,66.56
2022-08-02T19:02:40.332Z,67.00
2022-08-02T19:05:07.340Z,66.94
2022-08-02T19:07:50.893Z,67.26
2022-08-02T19:10:19.710Z,66.84
2022-08-02T19:12:46.648Z,66.67
2022-08-02T19:15:18.574Z,66.79
2022-08-02T19:17:55.510Z,67.04
2022-08-02T19:20:24.618Z,67.02
2022-08-02T19:22:53.859Z,67.63
2022-08-02T19:25:21.012Z,67.19
2022-08-02T19:27:54.744Z,67.41
2022-08-02T19:30:22.586Z,67.54
2022-08-02T19:32:58.893Z,67.32
2022-08-02T19:35:29.454Z,67.38
2022-08-02T19:38:05.680Z,67.42
2022-08-02T19:40:32.911Z,68.04
2022-08-02T19:44:21.093Z,67.90
2022-08-02T19:45:49.854Z,68.26
2022-08-02T19:48:29.035Z,68.72
2022-08-02T19:51:00.567Z,68.32
2022-08-02T19:53:48.024Z,68.40
2022-08-02T19:56:20.938Z,68.57
2022-08-02T19:58:49.772Z,68.65
2022-08-02T20:01:23.512Z,68.15
2022-08-02T20:03:54.411Z,68.61
2022-08-02T20:06:29.344Z,68.50
2022-08-02T20:08:59.368Z,68.63
2022-08-02T20:11:27.971Z,68.65
2022-08-02T20:13:55.142Z,68.48
2022-08-02T20:16:27.632Z,68.27
2022-08-02T20:18:55.087Z,68.27
2022-08-02T20:21:36.060Z,67.74
2022-08-02T20:24:07.327Z,67.78
2022-08-02T20:26:35.273Z,67.73
2022-08-02T20:29:03.541Z,68.12
2022-08-02T20:31:30.641Z,68.24
2022-08-02T20:33:57.715Z,68.19
2022-08-02T20:36:27.853Z,68.09
2022-08-02T20:38:55.028Z,68.91
2022-08-02T20:41:22.945Z,68.33
2022-08-02T20:43:50.170Z,68.64
2022-08-02T20:46:17.200Z,68.36
2022-08-02T20:48:44.906Z,68.61
2022-08-02T20:51:12.581Z,69.18
2022-08-02T20:53:54.645Z,69.07
2022-08-02T20:56:22.287Z,68.93
2022-08-02T20:58:52.410Z,68.87
2022-08-02T21:01:21.296Z,69.30
2022-08-02T21:03:58.466Z,69.41
2022-08-02T21:06:28.096Z,69.83
2022-08-02T21:08:55.200Z,70.13
2022-08-02T21:11:25.551Z,69.82
2022-08-02T21:14:07.772Z,70.25
2022-08-02T21:16:47.756Z,70.43
2022-08-02T21:19:14.664Z,71.25
2022-08-02T21:21:41.645Z,70.62
2022-08-02T21:24:11.276Z,71.29
2022-08-02T21:26:39.416Z,70.53
2022-08-02T21:29:07.222Z,70.15
2022-08-02T21:31:36.606Z,70.84
2022-08-02T21:34:21.511Z,71.41
2022-08-02T21:36:51.753Z,71.00
2022-08-02T21:39:19.198Z,71.89
2022-08-02T21:41:47.677Z,72.05
2022-08-02T21:44:15.847Z,72.11
2022-08-02T21:47:02.466Z,72.58
2022-08-02T21:50:09.300Z,72.54
2022-08-02T21:52:16.653Z,72.41
2022-08-02T21:54:45.465Z,72.38
2022-08-02T21:57:15.811Z,71.79
2022-08-02T21:59:46.599Z,71.66
2022-08-02T22:02:14.732Z,73.13
2022-08-02T22:04:47.397Z,72.26
2022-08-02T22:07:16.072Z,72.53
2022-08-02T22:09:45.468Z,72.39
2022-08-02T22:12:17.671Z,72.41
2022-08-02T22:14:49.481Z,72.21
2022-08-02T22:17:21.707Z,72.14
2022-08-02T22:20:08.954Z,71.94
2022-08-02T22:22:39.588Z,72.54
2022-08-02T22:25:14.020Z,72.89
2022-08-02T22:28:11.983Z,72.43
2022-08-02T22:30:40.931Z,72.05
2022-08-02T22:33:33.218Z,72.97
2022-08-02T22:36:00.587Z,72.64
2022-08-02T22:38:27.862Z,73.05
2022-08-02T22:40:54.997Z,73.72
2022-08-02T22:43:22.897Z,73.58
2022-08-02T22:45:50.518Z,73.55
2022-08-02T22:48:23.120Z,74.05
2022-08-02T22:50:51.682Z,73.63
2022-08-02T22:53:35.448Z,73.58
2022-08-02T22:56:03.796Z,73.72
2022-08-02T22:58:31.812Z,74.17
2022-08-02T23:00:59.096Z,74.02
2022-08-02T23:03:25.951Z,73.97
2022-08-02T23:05:52.844Z,74.65
2022-08-02T23:08:25.767Z,74.40
2022-08-02T23:10:52.580Z,74.58
2022-08-02T23:13:19.495Z,74.27
2022-08-02T23:16:04.956Z,74.41
2022-08-02T23:18:50.088Z,74.48
2022-08-02T23:22:02.061Z,73.77
2022-08-02T23:24:04.314Z,75.17
2022-08-02T23:26:31.142Z,74.81
2022-08-02T23:29:00.325Z,74.93
2022-08-02T23:31:31.386Z,75.39
2022-08-02T23:34:03.778Z,75.64
2022-08-02T23:36:32.134Z,76.25
2022-08-02T23:39:00.171Z,76.40
2022-08-02T23:41:27.827Z,76.36
2022-08-02T23:44:12.536Z,76.43
2022-08-02T23:46:46.951Z,76.11
2022-08-02T23:49:14.757Z,76.08
2022-08-02T23:51:43.927Z,76.75
2022-08-02T23:54:11.595Z,76.03
2022-08-02T23:56:39.209Z,76.14
2022-08-02T23:59:08.054Z,76.28
